createdAt,value
2019-06-07T00:00:53.575Z,8.60
2019-06-07T00:03:29.555Z,7.80
2019-06-07T00:05:52.567Z,8.50
2019-06-07T00:08:27.161Z,7.10
2019-06-07T00:10:51.339Z,7.87
2019-06-07T00:13:20.369Z,7.17
2019-06-07T00:15:50.623Z,7.43
2019-06-07T00:18:25.145Z,8.10
2019-06-07T00:20:49.538Z,6.00
2019-06-07T00:23:22.181Z,7.57
2019-06-07T00:26:10.757Z,8.53
2019-06-07T00:28:39.589Z,7.67
2019-06-07T00:31:11.447Z,7.97
2019-06-07T00:33:39.966Z,9.13
2019-06-07T00:36:10.132Z,7.00
2019-06-07T00:38:38.915Z,6.97
2019-06-07T00:41:07.563Z,8.73
2019-06-07T00:43:36.187Z,7.87
2019-06-07T00:46:04.925Z,8.33
2019-06-07T00:48:33.591Z,15.30
2019-06-07T00:51:02.146Z,6.87
2019-06-07T00:53:32.487Z,9.00
2019-06-07T00:56:01.059Z,7.83
2019-06-07T00:58:29.739Z,7.47
2019-06-07T01:00:58.467Z,7.63
2019-06-07T01:03:27.016Z,8.03
2019-06-07T01:05:55.594Z,12.37
2019-06-07T01:08:27.686Z,9.13
2019-06-07T01:10:55.911Z,9.10
2019-06-07T01:13:26.777Z,7.53
2019-06-07T01:15:54.764Z,6.60
2019-06-07T01:18:37.442Z,7.10
2019-06-07T01:20:53.803Z,7.70
2019-06-07T01:24:01.401Z,7.57
2019-06-07T01:26:12.067Z,7.10
2019-06-07T01:28:40.622Z,8.20
2019-06-07T01:31:09.344Z,7.33
2019-06-07T01:33:50.276Z,7.47
2019-06-07T01:36:09.731Z,10.43
2019-06-07T01:38:38.410Z,7.53
2019-06-07T01:41:28.456Z,9.13
2019-06-07T01:44:18.568Z,8.13
2019-06-07T01:46:46.286Z,6.97
2019-06-07T01:49:14.827Z,8.83
2019-06-07T01:52:02.743Z,15.67
2019-06-07T01:57:01.752Z,9.83
2019-06-07T01:59:31.626Z,6.73
2019-06-07T02:02:00.999Z,7.07
2019-06-07T02:04:32.888Z,9.87
2019-06-07T02:07:01.541Z,11.57
2019-06-07T02:09:32.054Z,8.47
2019-06-07T02:12:00.248Z,9.83
2019-06-07T02:14:32.432Z,7.70
2019-06-07T02:16:59.110Z,10.27
2019-06-07T02:19:39.879Z,9.90
2019-06-07T02:22:08.492Z,7.83
2019-06-07T02:24:37.310Z,8.23
2019-06-07T02:27:26.074Z,9.10
2019-06-07T02:29:55.650Z,6.73
2019-06-07T02:32:28.859Z,9.97
2019-06-07T02:35:14.084Z,6.63
2019-06-07T02:37:54.558Z,7.33
2019-06-07T02:40:29.951Z,6.07
2019-06-07T02:43:14.262Z,8.40
2019-06-07T02:45:44.384Z,6.47
2019-06-07T02:48:12.989Z,8.80
2019-06-07T02:50:41.671Z,7.50
2019-06-07T02:53:30.759Z,7.93
2019-06-07T02:56:34.880Z,8.50
2019-06-07T02:58:34.501Z,6.53
2019-06-07T03:01:08.388Z,6.37
2019-06-07T03:03:33.714Z,7.03
2019-06-07T03:06:03.567Z,7.20
2019-06-07T03:08:52.446Z,7.63
2019-06-07T03:11:42.207Z,5.93
2019-06-07T03:14:12.493Z,8.60
2019-06-07T03:16:44.285Z,6.90
2019-06-07T03:19:14.640Z,5.93
2019-06-07T03:21:44.963Z,9.63
2019-06-07T03:24:13.707Z,7.03
2019-06-07T03:29:33.816Z,5.93
2019-06-07T03:32:02.303Z,7.80
2019-06-07T03:34:37.721Z,9.43
2019-06-07T03:37:01.274Z,10.37
2019-06-07T03:39:31.247Z,8.80
2019-06-07T03:42:06.361Z,10.30
2019-06-07T03:44:35.583Z,8.80
2019-06-07T03:47:02.348Z,10.30
2019-06-07T03:49:35.466Z,11.43
2019-06-07T03:52:21.298Z,12.20
2019-06-07T03:54:50.041Z,11.57
2019-06-07T03:57:18.600Z,15.33
2019-06-07T03:59:47.416Z,16.10
2019-06-07T04:02:15.974Z,13.20
2019-06-07T04:04:44.549Z,16.60
2019-06-07T04:07:14.610Z,24.23
2019-06-07T04:09:43.472Z,23.57
2019-06-07T04:12:13.622Z,24.93
2019-06-07T04:14:42.966Z,24.80
2019-06-07T04:17:11.735Z,24.77
2019-06-07T04:19:43.222Z,26.47
2019-06-07T04:22:10.630Z,24.30
2019-06-07T04:24:41.942Z,22.80
2019-06-07T04:27:09.447Z,24.23
2019-06-07T04:30:02.949Z,25.33
2019-06-07T04:32:08.291Z,25.70
2019-06-07T04:34:56.284Z,25.77
2019-06-07T04:37:28.502Z,30.60
2019-06-07T04:39:57.467Z,24.83
2019-06-07T04:42:29.790Z,23.93
2019-06-07T04:44:59.938Z,25.63
2019-06-07T04:47:29.673Z,24.20
2019-06-07T04:50:01.055Z,24.97
2019-06-07T04:52:32.179Z,25.57
2019-06-07T04:55:01.689Z,25.47
2019-06-07T04:57:33.467Z,25.57
2019-06-07T05:00:22.264Z,26.40
2019-06-07T05:02:32.002Z,27.07
2019-06-07T05:05:00.835Z,22.67
2019-06-07T05:07:48.795Z,21.00
2019-06-07T05:10:17.378Z,21.67
2019-06-07T05:12:45.940Z,16.83
2019-06-07T05:15:14.546Z,18.97
2019-06-07T05:17:44.973Z,16.77
2019-06-07T05:20:34.209Z,18.50
2019-06-07T05:23:03.015Z,14.10
2019-06-07T05:25:51.750Z,16.23
2019-06-07T05:28:20.678Z,13.63
2019-06-07T05:31:07.292Z,14.27
2019-06-07T05:33:19.613Z,12.83
2019-06-07T05:35:48.186Z,15.20
2019-06-07T05:38:16.662Z,14.70
2019-06-07T05:40:48.807Z,13.83
2019-06-07T05:43:24.361Z,13.97
2019-06-07T05:45:53.134Z,14.30
2019-06-07T05:48:21.895Z,14.37
2019-06-07T05:50:56.793Z,15.40
2019-06-07T05:53:20.924Z,14.53
2019-06-07T05:55:51.715Z,13.50
2019-06-07T05:58:21.801Z,15.93
2019-06-07T06:00:51.445Z,13.57
2019-06-07T06:03:40.474Z,18.17
2019-06-07T06:06:09.540Z,16.37
2019-06-07T06:08:41.380Z,12.53
2019-06-07T06:11:08.725Z,13.30
2019-06-07T06:14:01.555Z,12.63
2019-06-07T06:16:10.986Z,12.20
2019-06-07T06:18:40.685Z,11.90
2019-06-07T06:21:19.185Z,16.00
2019-06-07T06:23:42.438Z,13.00
2019-06-07T06:26:10.367Z,11.70
2019-06-07T06:28:40.109Z,11.87
2019-06-07T06:31:08.843Z,12.33
2019-06-07T06:33:37.536Z,11.07
2019-06-07T06:36:06.279Z,14.43
2019-06-07T06:38:34.953Z,10.73
2019-06-07T06:41:22.877Z,12.37
2019-06-07T06:43:52.590Z,10.23
2019-06-07T06:46:37.925Z,9.40
2019-06-07T06:48:55.378Z,9.97
2019-06-07T06:51:24.648Z,10.13
2019-06-07T06:53:53.349Z,11.07
2019-06-07T06:56:25.027Z,12.07
2019-06-07T06:59:34.172Z,8.00
2019-06-07T07:01:31.768Z,7.87
2019-06-07T07:04:17.218Z,8.33
2019-06-07T07:07:05.170Z,9.90
2019-06-07T07:09:34.560Z,7.70
2019-06-07T07:12:12.317Z,6.33
2019-06-07T07:14:33.529Z,7.40
2019-06-07T07:17:02.280Z,6.80
2019-06-07T07:19:30.896Z,7.67
2019-06-07T07:21:59.618Z,8.33
2019-06-07T07:24:28.249Z,6.70
2019-06-07T07:26:58.426Z,7.03
2019-06-07T07:29:49.639Z,4.43
2019-06-07T07:32:16.732Z,5.60
2019-06-07T07:34:46.233Z,5.00
2019-06-07T07:37:15.659Z,4.43
2019-06-07T07:39:46.363Z,4.60
2019-06-07T07:42:21.219Z,3.63
2019-06-07T07:44:47.158Z,5.13
2019-06-07T07:47:18.407Z,3.23
2019-06-07T07:49:48.514Z,4.03
2019-06-07T07:52:17.596Z,2.60
2019-06-07T07:57:35.949Z,2.77
2019-06-07T08:00:48.636Z,4.53
2019-06-07T08:02:36.599Z,3.87
2019-06-07T08:05:25.496Z,3.17
2019-06-07T08:07:40.148Z,2.80
2019-06-07T08:10:11.045Z,2.90
2019-06-07T08:13:00.281Z,3.10
2019-06-07T08:15:30.455Z,5.17
2019-06-07T08:18:03.771Z,2.90
2019-06-07T08:20:30.186Z,3.23
2019-06-07T08:23:01.130Z,5.13
2019-06-07T08:25:29.105Z,3.03
2019-06-07T08:28:17.308Z,3.83
2019-06-07T08:30:50.820Z,4.17
2019-06-07T08:33:25.784Z,2.20
2019-06-07T08:38:29.754Z,2.43
2019-06-07T08:40:53.649Z,3.47
2019-06-07T08:43:21.024Z,5.67
2019-06-07T08:46:07.051Z,2.53
2019-06-07T08:48:31.803Z,3.77
2019-06-07T08:51:06.556Z,2.70
2019-06-07T08:53:30.720Z,2.87
2019-06-07T08:56:06.981Z,3.77
2019-06-07T08:58:29.491Z,3.90
2019-06-07T09:01:05.617Z,3.57
2019-06-07T09:03:29.217Z,5.13
2019-06-07T09:06:06.120Z,2.87
2019-06-07T09:08:30.685Z,4.83
2019-06-07T09:10:59.459Z,2.53
2019-06-07T09:13:28.499Z,3.77
2019-06-07T09:16:03.591Z,4.27
2019-06-07T09:18:41.960Z,2.87
2019-06-07T09:21:00.445Z,3.97
2019-06-07T09:23:27.858Z,2.33
2019-06-07T09:26:05.230Z,3.27
2019-06-07T09:28:27.478Z,3.20
2019-06-07T09:30:57.862Z,2.90
2019-06-07T09:33:26.470Z,3.47
2019-06-07T09:35:58.686Z,3.73
2019-06-07T09:38:47.693Z,4.97
2019-06-07T09:41:16.337Z,3.07
2019-06-07T09:44:01.343Z,2.70
2019-06-07T09:46:17.101Z,3.73
2019-06-07T09:49:14.261Z,3.70
2019-06-07T09:51:19.822Z,5.80
2019-06-07T09:53:46.495Z,2.73
2019-06-07T09:56:15.150Z,4.63
2019-06-07T09:58:51.849Z,3.07
2019-06-07T10:01:15.461Z,2.60
2019-06-07T10:03:44.083Z,3.70
2019-06-07T10:06:13.894Z,2.30
2019-06-07T10:11:15.831Z,2.37
2019-06-07T10:13:44.568Z,4.10
2019-06-07T10:16:13.186Z,4.67
2019-06-07T10:18:41.751Z,3.90
2019-06-07T10:21:14.856Z,4.57
2019-06-07T10:23:40.833Z,2.90
2019-06-07T10:26:10.161Z,6.43
2019-06-07T10:28:38.838Z,2.83
2019-06-07T10:31:09.507Z,2.37
2019-06-07T10:33:37.878Z,5.00
2019-06-07T10:36:06.661Z,4.10
2019-06-07T10:38:35.259Z,2.27
2019-06-07T10:41:04.720Z,4.30
2019-06-07T10:43:33.382Z,1.57
2019-06-07T10:46:03.527Z,1.87
2019-06-07T10:48:32.178Z,2.40
2019-06-07T10:51:02.120Z,1.80
2019-06-07T10:53:50.168Z,2.03
2019-06-07T10:56:18.831Z,2.20
2019-06-07T10:58:47.392Z,1.90
2019-06-07T11:01:16.107Z,3.20
2019-06-07T11:03:44.723Z,3.00
2019-06-07T11:06:14.563Z,3.93
2019-06-07T11:08:43.223Z,2.07
2019-06-07T11:11:12.283Z,3.27
2019-06-07T11:13:40.920Z,3.17
2019-06-07T11:16:11.084Z,4.30
2019-06-07T11:18:39.899Z,1.77
2019-06-07T11:21:08.432Z,5.40
2019-06-07T11:23:37.011Z,4.83
2019-06-07T11:26:06.212Z,3.50
2019-06-07T11:28:34.850Z,4.27
2019-06-07T11:31:03.405Z,2.10
2019-06-07T11:33:31.980Z,2.83
2019-06-07T11:36:00.656Z,1.47
2019-06-07T11:38:30.779Z,3.00
2019-06-07T11:40:59.318Z,1.73
2019-06-07T11:43:27.963Z,4.47
2019-06-07T11:45:56.510Z,2.47
2019-06-07T11:48:25.086Z,1.83
2019-06-07T11:50:53.702Z,6.73
2019-06-07T11:53:22.351Z,2.80
2019-06-07T11:55:50.894Z,3.43
2019-06-07T11:58:21.784Z,2.23
2019-06-07T12:00:49.919Z,1.73
2019-06-07T12:03:18.552Z,1.90
2019-06-07T12:05:47.162Z,1.57
2019-06-07T12:08:16.105Z,5.90
2019-06-07T12:10:44.761Z,1.87
2019-06-07T12:13:15.340Z,1.47
2019-06-07T12:15:43.607Z,4.07
2019-06-07T12:18:13.101Z,2.83
2019-06-07T12:20:41.732Z,3.17
2019-06-07T12:23:11.923Z,4.00
2019-06-07T12:25:40.694Z,1.73
2019-06-07T12:28:10.598Z,3.43
2019-06-07T12:30:39.235Z,5.17
2019-06-07T12:33:07.948Z,2.80
2019-06-07T12:35:36.502Z,6.47
2019-06-07T12:38:05.229Z,2.70
2019-06-07T12:40:33.852Z,3.10
2019-06-07T12:43:02.495Z,4.13
2019-06-07T12:45:44.602Z,3.37
2019-06-07T12:48:25.781Z,1.80
2019-06-07T12:50:52.639Z,1.70
2019-06-07T12:53:25.936Z,6.60
2019-06-07T12:55:51.551Z,2.43
2019-06-07T12:58:27.215Z,1.87
2019-06-07T13:00:50.471Z,2.77
2019-06-07T13:03:20.849Z,3.83
2019-06-07T13:05:49.266Z,1.90
2019-06-07T13:08:17.926Z,3.60
2019-06-07T13:10:46.559Z,3.70
2019-06-07T13:13:15.781Z,1.87
2019-06-07T13:15:44.423Z,3.83
2019-06-07T13:18:15.190Z,1.53
2019-06-07T13:20:43.375Z,4.00
2019-06-07T13:23:11.947Z,2.93
2019-06-07T13:25:46.061Z,1.73
2019-06-07T13:28:11.004Z,2.93
2019-06-07T13:30:39.563Z,6.00
2019-06-07T13:33:08.204Z,3.07
2019-06-07T13:35:36.746Z,1.80
2019-06-07T13:38:26.647Z,2.67
2019-06-07T13:40:56.507Z,2.00
2019-06-07T13:43:25.771Z,4.40
2019-06-07T13:45:54.554Z,3.90
2019-06-07T13:48:23.398Z,2.20
2019-06-07T13:50:52.052Z,3.47
2019-06-07T13:53:20.777Z,3.33
2019-06-07T13:55:49.381Z,6.03
2019-06-07T13:58:18.697Z,2.17
2019-06-07T14:00:47.952Z,2.00
2019-06-07T14:03:20.310Z,2.43
2019-06-07T14:05:47.014Z,2.73
2019-06-07T14:08:15.774Z,2.70
2019-06-07T14:10:44.351Z,2.87
2019-06-07T14:13:12.900Z,3.83
2019-06-07T14:15:41.563Z,2.17
2019-06-07T14:18:10.119Z,3.47
2019-06-07T14:20:38.685Z,4.83
2019-06-07T14:23:07.600Z,2.63
2019-06-07T14:25:36.246Z,4.07
2019-06-07T14:28:10.859Z,2.60
2019-06-07T14:30:35.285Z,8.17
2019-06-07T14:33:04.010Z,2.13
2019-06-07T14:35:33.666Z,2.03
2019-06-07T14:38:02.442Z,4.80
2019-06-07T14:40:31.967Z,2.40
2019-06-07T14:43:00.545Z,2.67
2019-06-07T14:45:29.794Z,4.20
2019-06-07T14:47:58.404Z,4.50
2019-06-07T14:50:28.175Z,3.67
2019-06-07T14:52:56.871Z,2.50
2019-06-07T14:55:26.833Z,4.43
2019-06-07T14:57:55.643Z,2.87
2019-06-07T15:00:28.287Z,2.10
2019-06-07T15:02:57.005Z,2.87
2019-06-07T15:05:31.213Z,2.90
2019-06-07T15:08:00.209Z,5.70
2019-06-07T15:10:28.754Z,4.23
2019-06-07T15:12:57.313Z,5.00
2019-06-07T15:15:26.363Z,8.50
2019-06-07T15:17:55.074Z,2.53
2019-06-07T15:20:23.787Z,6.03
2019-06-07T15:22:52.454Z,5.53
2019-06-07T15:25:21.055Z,1.83
2019-06-07T15:27:49.598Z,2.17
2019-06-07T15:30:18.949Z,3.80
2019-06-07T15:32:47.567Z,2.10
2019-06-07T15:35:16.257Z,3.60
2019-06-07T15:37:44.907Z,3.63
2019-06-07T15:40:14.195Z,1.33
2019-06-07T15:42:52.394Z,5.90
2019-06-07T15:45:13.480Z,4.50
2019-06-07T15:47:42.128Z,7.93
2019-06-07T15:50:11.414Z,9.07
2019-06-07T15:52:41.190Z,14.30
2019-06-07T15:55:10.859Z,8.37
2019-06-07T15:57:39.884Z,11.30
2019-06-07T16:00:15.003Z,7.93
2019-06-07T16:02:43.770Z,4.93
2019-06-07T16:05:31.953Z,4.80
2019-06-07T16:08:00.595Z,12.70
2019-06-07T16:10:29.218Z,8.07
2019-06-07T16:13:00.722Z,4.63
2019-06-07T16:15:28.143Z,10.63
2019-06-07T16:17:56.867Z,10.90
2019-06-07T16:20:25.491Z,3.80
2019-06-07T16:22:54.079Z,3.33
2019-06-07T16:25:22.767Z,3.37
2019-06-07T16:27:51.360Z,8.13
2019-06-07T16:30:20.347Z,13.00
2019-06-07T16:32:48.923Z,5.27
2019-06-07T16:35:17.706Z,7.27
2019-06-07T16:37:50.331Z,2.77
2019-06-07T16:40:17.371Z,4.57
2019-06-07T16:42:48.958Z,6.77
2019-06-07T16:45:18.190Z,4.67
2019-06-07T16:47:47.855Z,1.90
2019-06-07T16:50:17.217Z,2.03
2019-06-07T16:52:46.521Z,7.17
2019-06-07T16:55:16.907Z,8.70
2019-06-07T16:57:45.554Z,7.80
2019-06-07T17:00:36.015Z,2.47
2019-06-07T17:03:05.294Z,6.00
2019-06-07T17:05:33.914Z,2.37
2019-06-07T17:08:02.562Z,7.73
2019-06-07T17:10:31.113Z,3.10
2019-06-07T17:13:01.020Z,4.30
2019-06-07T17:15:29.755Z,1.90
2019-06-07T17:17:58.340Z,4.27
2019-06-07T17:20:27.026Z,2.57
2019-06-07T17:22:55.611Z,4.20
2019-06-07T17:25:24.226Z,5.80
2019-06-07T17:27:53.046Z,2.80
2019-06-07T17:30:23.387Z,5.73
2019-06-07T17:32:58.958Z,2.60
2019-06-07T17:35:23.573Z,2.63
2019-06-07T17:37:52.235Z,5.40
2019-06-07T17:40:21.543Z,2.50
2019-06-07T17:42:51.001Z,2.37
2019-06-07T17:45:21.478Z,2.20
2019-06-07T17:47:52.088Z,3.30
2019-06-07T17:50:42.142Z,1.90
2019-06-07T17:53:10.788Z,2.57
2019-06-07T17:55:39.650Z,5.77
2019-06-07T17:58:08.747Z,2.00
2019-06-07T18:00:58.214Z,2.50
2019-06-07T18:03:26.955Z,2.07
2019-06-07T18:05:56.202Z,2.37
2019-06-07T18:08:25.453Z,1.50
2019-06-07T18:10:54.426Z,1.80
2019-06-07T18:13:23.623Z,3.53
2019-06-07T18:16:11.593Z,3.43
2019-06-07T18:18:41.711Z,2.23
2019-06-07T18:21:10.391Z,2.90
2019-06-07T18:23:39.722Z,4.80
2019-06-07T18:26:08.503Z,2.63
2019-06-07T18:28:37.553Z,1.47
2019-06-07T18:31:06.699Z,2.07
2019-06-07T18:33:35.542Z,2.80
2019-06-07T18:36:04.799Z,1.57
2019-06-07T18:38:33.488Z,2.57
2019-06-07T18:41:02.165Z,3.47
2019-06-07T18:43:30.898Z,1.00
2019-06-07T18:45:59.593Z,2.67
2019-06-07T18:48:28.371Z,2.47
2019-06-07T18:50:57.228Z,2.80
2019-06-07T18:53:26.263Z,1.40
2019-06-07T18:55:56.223Z,2.63
2019-06-07T18:58:25.643Z,3.20
2019-06-07T19:00:55.475Z,3.53
2019-06-07T19:03:24.170Z,2.57
2019-06-07T19:05:52.754Z,2.40
2019-06-07T19:08:21.333Z,2.10
2019-06-07T19:10:50.703Z,1.27
2019-06-07T19:13:19.555Z,2.70
2019-06-07T19:15:49.710Z,2.57
2019-06-07T19:18:18.354Z,3.77
2019-06-07T19:20:46.901Z,1.97
2019-06-07T19:23:15.548Z,2.23
2019-06-07T19:25:45.226Z,2.83
2019-06-07T19:28:14.098Z,1.93
2019-06-07T19:30:42.718Z,2.60
2019-06-07T19:33:12.902Z,1.63
2019-06-07T19:35:43.253Z,2.77
2019-06-07T19:38:11.896Z,2.40
2019-06-07T19:40:40.581Z,3.17
2019-06-07T19:43:09.330Z,2.57
2019-06-07T19:45:37.953Z,1.87
2019-06-07T19:48:06.869Z,1.43
2019-06-07T19:50:35.873Z,3.30
2019-06-07T19:53:23.834Z,2.30
2019-06-07T19:55:53.071Z,2.30
2019-06-07T19:58:21.927Z,3.10
2019-06-07T20:00:50.468Z,3.90
2019-06-07T20:03:19.253Z,8.87
2019-06-07T20:05:47.890Z,1.70
2019-06-07T20:08:16.474Z,2.87
2019-06-07T20:10:45.443Z,1.63
2019-06-07T20:13:14.359Z,2.10
2019-06-07T20:15:43.322Z,1.00
2019-06-07T20:18:14.022Z,1.50
2019-06-07T20:20:42.639Z,3.43
2019-06-07T20:23:11.263Z,5.17
2019-06-07T20:25:39.950Z,1.87
2019-06-07T20:28:09.425Z,2.47
2019-06-07T20:30:38.030Z,4.20
2019-06-07T20:33:08.071Z,1.50
2019-06-07T20:35:36.851Z,1.83
2019-06-07T20:38:07.040Z,4.00
2019-06-07T20:40:35.582Z,4.97
2019-06-07T20:43:05.631Z,2.20
2019-06-07T20:45:34.475Z,5.50
2019-06-07T20:48:04.223Z,1.17
2019-06-07T20:50:32.905Z,0.63
2019-06-07T20:53:03.054Z,1.80
2019-06-07T20:55:31.764Z,2.87
2019-06-07T20:58:00.836Z,2.03
2019-06-07T21:00:29.379Z,4.33
2019-06-07T21:02:58.984Z,4.57
2019-06-07T21:05:27.595Z,0.77
2019-06-07T21:07:56.216Z,2.40
2019-06-07T21:10:24.869Z,3.77
2019-06-07T21:12:53.414Z,2.57
2019-06-07T21:15:22.054Z,2.80
2019-06-07T21:17:50.612Z,2.93
2019-06-07T21:20:19.323Z,2.10
2019-06-07T21:22:47.872Z,3.03
2019-06-07T21:25:16.520Z,3.47
2019-06-07T21:28:05.184Z,1.07
2019-06-07T21:30:33.838Z,1.83
2019-06-07T21:33:03.576Z,1.67
2019-06-07T21:35:32.327Z,5.20
2019-06-07T21:38:01.929Z,1.70
2019-06-07T21:40:31.746Z,4.50
2019-06-07T21:43:00.437Z,2.27
2019-06-07T21:45:29.038Z,4.87
2019-06-07T21:47:58.826Z,0.93
2019-06-07T21:50:27.391Z,1.13
2019-06-07T21:52:56.041Z,4.27
2019-06-07T21:55:24.655Z,2.57
2019-06-07T21:58:13.588Z,4.03
2019-06-07T22:00:57.512Z,4.10
2019-06-07T22:03:26.155Z,3.03
2019-06-07T22:05:54.772Z,1.83
2019-06-07T22:08:24.973Z,1.20
2019-06-07T22:10:53.513Z,2.50
2019-06-07T22:13:22.227Z,3.07
2019-06-07T22:15:50.773Z,3.17
2019-06-07T22:18:19.424Z,1.90
2019-06-07T22:20:48.039Z,3.53
2019-06-07T22:23:16.610Z,2.67
2019-06-07T22:25:45.167Z,1.83
2019-06-07T22:28:14.366Z,3.53
2019-06-07T22:30:43.033Z,1.97
2019-06-07T22:33:13.367Z,1.97
2019-06-07T22:35:41.835Z,1.13
2019-06-07T22:38:10.408Z,1.73
2019-06-07T22:40:39.029Z,3.73
2019-06-07T22:43:07.772Z,2.60
2019-06-07T22:45:36.323Z,2.03
2019-06-07T22:48:05.043Z,1.53
2019-06-07T22:50:33.663Z,1.97
2019-06-07T22:53:02.241Z,3.97
2019-06-07T22:55:30.853Z,2.60
2019-06-07T22:57:59.680Z,3.87
2019-06-07T23:00:30.400Z,1.63
2019-06-07T23:02:59.091Z,3.80
2019-06-07T23:05:27.843Z,2.67
2019-06-07T23:07:56.434Z,4.87
2019-06-07T23:10:25.111Z,3.93
2019-06-07T23:12:53.835Z,3.87
2019-06-07T23:15:22.445Z,1.70
2019-06-07T23:17:51.049Z,2.93
2019-06-07T23:20:21.253Z,1.40
2019-06-07T23:22:49.808Z,6.10
2019-06-07T23:25:22.387Z,2.67
2019-06-07T23:27:48.771Z,2.67
2019-06-07T23:30:18.739Z,3.87
2019-06-07T23:32:47.504Z,2.20
2019-06-07T23:35:17.309Z,3.33
2019-06-07T23:37:46.009Z,1.00
2019-06-07T23:40:15.317Z,2.13
2019-06-07T23:42:43.942Z,5.87
2019-06-07T23:45:33.392Z,3.80
2019-06-07T23:48:15.307Z,4.43
2019-06-07T23:50:55.678Z,2.73
2019-06-07T23:53:24.255Z,3.13
2019-06-07T23:55:52.806Z,3.30
2019-06-07T23:58:22.248Z,3.93
